Walbridge, OH (43465)

12:54 AM EDT on September 02, 2014 (GMT -0400)
Lake Township | Change Station
CLOSE
Current Station
Personal Weather Station
Location: Walbridge, OH
Elevation: 617 ft
Nearby Weather Stations

Elev 617 ft 41.57 °N, 83.51 °W | Updated 21 seconds ago

Clear
Clear
73.2 °F
Feels Like 76 °F
N
4.5
Wind Variable Wind from SSW
Gusts 4.9 mph

Today
High -- | Low -- °F
--% Chance of Precip.
Yesterday
High -- | Low -- °F
Precip. -- in
7:01 AM 8:05 PM
Waxing Crescent, 47% visible
Pressure 29.87 in
Visibility 10.0 miles
Clouds Clear
Heat Index 76 °F
Dew Point 60 °F
Humidity 64%
Rainfall 0.00 in
Snow Depth Not available.
UV 0 out of 12
Pollen 9.00 out of 12
Air Quality Not available.
Flu Activity Not available.
METAR KTDZ 020353Z AUTO 22006KT 10SM CLR 23/21 A2988 RMK AO2 SLP113 T02330206 TSNO

More Conditions Fewer Conditions

Pressure 29.87 in
Visibility 10.0 miles
Clouds Clear
Heat Index 76 °F
Dew Point 60 °F
Humidity 64%
Rainfall 0.00 in
Snow Depth Not available.
UV 0 out of 12
Pollen 9.00 out of 12
Air Quality Not available.
Flu Activity Not available.
METAR KTDZ 020353Z AUTO 22006KT 10SM CLR 23/21 A2988 RMK AO2 SLP113 T02330206 TSNO

More Conditions Fewer Conditions

10-Day Weather Forecast

Almanac

Astronomy

Sep. 02, 2014 Rise Set
Actual Time 7:01 AM EDT 8:05 PM EDT
Civil Twilight 6:32 AM EDT 8:33 PM EDT
Nautical Twilight 5:58 AM EDT 9:07 PM EDT
Astronomical Twilight 5:23 AM EDT 9:43 PM EDT
Moon 2:49 PM EDT 12:02 AM EDT
Length of Visible Light 14h 01m
Length of Day
13h 04m
Tomorrow will be 2m 41s shorter.
Waxing Crescent, 47% of the Moon is Illuminated
Today
Waxing Crescent
Sep 2
First Quarter
Sep 8
Full
Sep 15
Last Quarter
Sep 24
New

Today's Extremes

State Highs State Lows

Community

WunderPhotos

Upload Photos

1,749,573 photos uploaded!

WunderBlogs® & News

Nearby

Snow Depth

Station Depth Elevation
No new snow has been reported.

Earthquake Activity

City Distance Mag. Time & Date
No recent earthquake activity has been reported nearby.
Minimum magnitude displayed is 2.5.

Coastal Water Temperatures

Place Temperature
Marblehead, OH 73.0 °F

Nearby Weather Stations